sensor_id;sensor_type;location;lat;lon;timestamp;P1;durP1;ratioP1;P2;durP2;ratioP2
14584;SDS011;7379;51.506;11.876;2022-10-17T00:00:16;3.70;;;3.40;;
14584;SDS011;7379;51.506;11.876;2022-10-17T00:02:42;3.90;;;3.50;;
14584;SDS011;7379;51.506;11.876;2022-10-17T00:05:09;3.80;;;3.40;;
14584;SDS011;7379;51.506;11.876;2022-10-17T00:07:36;3.85;;;3.40;;
14584;SDS011;7379;51.506;11.876;2022-10-17T00:10:05;3.25;;;2.95;;
14584;SDS011;7379;51.506;11.876;2022-10-17T00:12:33;4.25;;;3.72;;
14584;SDS011;7379;51.506;11.876;2022-10-17T00:15:01;4.85;;;3.30;;
14584;SDS011;7379;51.506;11.876;2022-10-17T00:17:29;3.88;;;3.47;;
14584;SDS011;7379;51.506;11.876;2022-10-17T00:19:57;3.70;;;3.40;;
14584;SDS011;7379;51.506;11.876;2022-10-17T00:22:24;3.85;;;3.45;;
14584;SDS011;7379;51.506;11.876;2022-10-17T00:24:51;4.28;;;3.40;;
14584;SDS011;7379;51.506;11.876;2022-10-17T00:27:19;3.67;;;3.38;;
14584;SDS011;7379;51.506;11.876;2022-10-17T00:29:46;3.90;;;3.50;;
14584;SDS011;7379;51.506;11.876;2022-10-17T00:32:14;3.70;;;3.30;;
14584;SDS011;7379;51.506;11.876;2022-10-17T00:34:40;3.83;;;3.28;;
14584;SDS011;7379;51.506;11.876;2022-10-17T00:37:07;3.30;;;3.00;;
14584;SDS011;7379;51.506;11.876;2022-10-17T00:39:34;3.70;;;3.15;;
14584;SDS011;7379;51.506;11.876;2022-10-17T00:42:01;3.92;;;3.25;;
14584;SDS011;7379;51.506;11.876;2022-10-17T00:47:26;3.55;;;3.10;;
14584;SDS011;7379;51.506;11.876;2022-10-17T00:49:53;3.45;;;3.13;;
14584;SDS011;7379;51.506;11.876;2022-10-17T00:52:21;3.60;;;3.30;;
14584;SDS011;7379;51.506;11.876;2022-10-17T00:54:50;3.55;;;3.25;;
14584;SDS011;7379;51.506;11.876;2022-10-17T00:57:21;3.85;;;3.45;;
14584;SDS011;7379;51.506;11.876;2022-10-17T00:59:49;3.33;;;3.03;;
14584;SDS011;7379;51.506;11.876;2022-10-17T01:02:21;3.47;;;3.15;;
14584;SDS011;7379;51.506;11.876;2022-10-17T01:04:49;3.47;;;3.17;;
14584;SDS011;7379;51.506;11.876;2022-10-17T01:07:19;3.75;;;3.28;;
14584;SDS011;7379;51.506;11.876;2022-10-17T01:09:46;3.72;;;3.38;;
14584;SDS011;7379;51.506;11.876;2022-10-17T01:12:15;3.92;;;3.03;;
14584;SDS011;7379;51.506;11.876;2022-10-17T01:14:48;3.13;;;2.70;;
14584;SDS011;7379;51.506;11.876;2022-10-17T01:17:31;3.58;;;3.10;;
14584;SDS011;7379;51.506;11.876;2022-10-17T01:20:14;4.07;;;3.20;;
14584;SDS011;7379;51.506;11.876;2022-10-17T01:23:17;3.50;;;3.20;;
14584;SDS011;7379;51.506;11.876;2022-10-17T01:26:15;3.55;;;3.15;;
14584;SDS011;7379;51.506;11.876;2022-10-17T01:28:55;3.63;;;2.92;;
14584;SDS011;7379;51.506;11.876;2022-10-17T01:31:45;3.30;;;3.00;;
14584;SDS011;7379;51.506;11.876;2022-10-17T01:34:15;3.35;;;3.05;;
14584;SDS011;7379;51.506;11.876;2022-10-17T01:36:47;3.75;;;3.28;;
14584;SDS011;7379;51.506;11.876;2022-10-17T01:39:19;3.65;;;3.00;;
14584;SDS011;7379;51.506;11.876;2022-10-17T01:41:55;4.60;;;2.97;;
14584;SDS011;7379;51.506;11.876;2022-10-17T01:44:27;3.58;;;3.28;;
14584;SDS011;7379;51.506;11.876;2022-10-17T01:47:02;3.97;;;3.20;;
14584;SDS011;7379;51.506;11.876;2022-10-17T01:49:32;4.22;;;3.38;;
14584;SDS011;7379;51.506;11.876;2022-10-17T01:52:03;5.20;;;3.35;;
14584;SDS011;7379;51.506;11.876;2022-10-17T01:54:36;4.05;;;3.10;;
14584;SDS011;7379;51.506;11.876;2022-10-17T01:57:09;4.20;;;3.20;;
14584;SDS011;7379;51.506;11.876;2022-10-17T01:59:45;3.45;;;3.15;;
14584;SDS011;7379;51.506;11.876;2022-10-17T02:02:16;4.15;;;3.05;;
14584;SDS011;7379;51.506;11.876;2022-10-17T02:04:44;3.95;;;3.30;;
14584;SDS011;7379;51.506;11.876;2022-10-17T02:07:13;3.38;;;2.97;;
14584;SDS011;7379;51.506;11.876;2022-10-17T02:09:40;4.35;;;3.03;;
14584;SDS011;7379;51.506;11.876;2022-10-17T02:12:11;3.88;;;3.42;;
14584;SDS011;7379;51.506;11.876;2022-10-17T02:14:59;4.55;;;3.22;;
14584;SDS011;7379;51.506;11.876;2022-10-17T02:17:43;3.78;;;2.90;;
14584;SDS011;7379;51.506;11.876;2022-10-17T02:20:16;4.55;;;3.20;;
14584;SDS011;7379;51.506;11.876;2022-10-17T02:22:50;4.30;;;3.30;;
14584;SDS011;7379;51.506;11.876;2022-10-17T02:25:23;3.33;;;3.00;;
14584;SDS011;7379;51.506;11.876;2022-10-17T02:27:59;4.82;;;3.17;;
14584;SDS011;7379;51.506;11.876;2022-10-17T02:30:33;4.07;;;3.47;;
14584;SDS011;7379;51.506;11.876;2022-10-17T02:33:06;4.65;;;3.60;;
14584;SDS011;7379;51.506;11.876;2022-10-17T02:35:38;3.40;;;3.10;;
14584;SDS011;7379;51.506;11.876;2022-10-17T02:38:08;3.72;;;3.15;;
14584;SDS011;7379;51.506;11.876;2022-10-17T02:40:37;3.33;;;2.88;;
14584;SDS011;7379;51.506;11.876;2022-10-17T02:43:06;3.67;;;2.90;;
14584;SDS011;7379;51.506;11.876;2022-10-17T02:45:33;3.35;;;3.05;;
14584;SDS011;7379;51.506;11.876;2022-10-17T02:48:02;3.72;;;3.00;;
14584;SDS011;7379;51.506;11.876;2022-10-17T02:50:37;4.40;;;3.53;;
14584;SDS011;7379;51.506;11.876;2022-10-17T02:53:19;3.22;;;2.92;;
14584;SDS011;7379;51.506;11.876;2022-10-17T02:55:52;4.05;;;3.10;;
14584;SDS011;7379;51.506;11.876;2022-10-17T02:58:23;4.57;;;3.45;;
14584;SDS011;7379;51.506;11.876;2022-10-17T03:00:52;5.53;;;3.10;;
14584;SDS011;7379;51.506;11.876;2022-10-17T03:03:22;3.55;;;2.90;;
14584;SDS011;7379;51.506;11.876;2022-10-17T03:05:50;3.40;;;3.10;;
14584;SDS011;7379;51.506;11.876;2022-10-17T03:08:18;4.68;;;3.22;;
14584;SDS011;7379;51.506;11.876;2022-10-17T03:10:45;3.58;;;3.25;;
14584;SDS011;7379;51.506;11.876;2022-10-17T03:13:12;3.70;;;3.30;;
14584;SDS011;7379;51.506;11.876;2022-10-17T03:15:39;3.70;;;3.40;;
14584;SDS011;7379;51.506;11.876;2022-10-17T03:18:06;3.88;;;3.17;;
14584;SDS011;7379;51.506;11.876;2022-10-17T03:20:34;3.60;;;3.30;;
14584;SDS011;7379;51.506;11.876;2022-10-17T03:23:01;3.60;;;3.30;;
14584;SDS011;7379;51.506;11.876;2022-10-17T03:25:28;3.45;;;3.15;;
14584;SDS011;7379;51.506;11.876;2022-10-17T03:27:56;4.05;;;3.20;;
14584;SDS011;7379;51.506;11.876;2022-10-17T03:30:24;3.95;;;3.22;;
14584;SDS011;7379;51.506;11.876;2022-10-17T03:32:51;3.80;;;3.40;;
14584;SDS011;7379;51.506;11.876;2022-10-17T03:35:18;3.58;;;3.10;;
14584;SDS011;7379;51.506;11.876;2022-10-17T03:37:46;3.55;;;3.25;;
14584;SDS011;7379;51.506;11.876;2022-10-17T03:40:13;3.67;;;3.38;;
14584;SDS011;7379;51.506;11.876;2022-10-17T03:42:40;3.20;;;2.90;;
14584;SDS011;7379;51.506;11.876;2022-10-17T03:45:07;3.83;;;3.30;;
14584;SDS011;7379;51.506;11.876;2022-10-17T03:47:34;3.45;;;3.10;;
14584;SDS011;7379;51.506;11.876;2022-10-17T03:50:01;3.40;;;3.10;;
14584;SDS011;7379;51.506;11.876;2022-10-17T03:52:28;3.53;;;3.22;;
14584;SDS011;7379;51.506;11.876;2022-10-17T03:54:56;4.05;;;3.55;;
14584;SDS011;7379;51.506;11.876;2022-10-17T03:57:23;4.70;;;3.03;;
14584;SDS011;7379;51.506;11.876;2022-10-17T03:59:49;4.15;;;3.15;;
14584;SDS011;7379;51.506;11.876;2022-10-17T04:02:16;3.75;;;3.28;;
14584;SDS011;7379;51.506;11.876;2022-10-17T04:04:43;4.10;;;3.22;;
14584;SDS011;7379;51.506;11.876;2022-10-17T04:07:10;3.45;;;3.15;;
14584;SDS011;7379;51.506;11.876;2022-10-17T04:09:37;3.60;;;3.30;;
14584;SDS011;7379;51.506;11.876;2022-10-17T04:12:05;4.10;;;3.70;;
14584;SDS011;7379;51.506;11.876;2022-10-17T04:14:32;5.05;;;3.17;;
14584;SDS011;7379;51.506;11.876;2022-10-17T04:16:59;3.22;;;2.92;;
14584;SDS011;7379;51.506;11.876;2022-10-17T04:19:25;4.15;;;3.17;;
14584;SDS011;7379;51.506;11.876;2022-10-17T04:21:52;4.30;;;3.38;;
14584;SDS011;7379;51.506;11.876;2022-10-17T04:24:19;4.43;;;3.42;;
14584;SDS011;7379;51.506;11.876;2022-10-17T04:26:47;3.92;;;3.53;;
14584;SDS011;7379;51.506;11.876;2022-10-17T04:29:17;4.40;;;3.40;;
14584;SDS011;7379;51.506;11.876;2022-10-17T04:31:44;4.15;;;3.22;;
14584;SDS011;7379;51.506;11.876;2022-10-17T04:34:10;3.58;;;3.28;;
14584;SDS011;7379;51.506;11.876;2022-10-17T04:36:38;4.35;;;3.40;;
14584;SDS011;7379;51.506;11.876;2022-10-17T04:39:05;4.03;;;3.60;;
14584;SDS011;7379;51.506;11.876;2022-10-17T04:41:31;3.97;;;3.60;;
14584;SDS011;7379;51.506;11.876;2022-10-17T04:43:58;3.40;;;2.95;;
14584;SDS011;7379;51.506;11.876;2022-10-17T04:46:26;4.95;;;3.75;;
14584;SDS011;7379;51.506;11.876;2022-10-17T04:48:53;3.65;;;3.30;;
14584;SDS011;7379;51.506;11.876;2022-10-17T04:51:20;4.88;;;3.53;;
14584;SDS011;7379;51.506;11.876;2022-10-17T04:53:46;3.65;;;3.35;;
14584;SDS011;7379;51.506;11.876;2022-10-17T04:56:14;4.32;;;3.50;;
14584;SDS011;7379;51.506;11.876;2022-10-17T04:58:42;4.13;;;3.65;;
14584;SDS011;7379;51.506;11.876;2022-10-17T05:01:11;4.15;;;3.80;;
14584;SDS011;7379;51.506;11.876;2022-10-17T05:03:40;4.00;;;3.60;;
14584;SDS011;7379;51.506;11.876;2022-10-17T05:06:08;6.15;;;4.00;;
14584;SDS011;7379;51.506;11.876;2022-10-17T05:08:36;6.20;;;3.83;;
14584;SDS011;7379;51.506;11.876;2022-10-17T05:11:03;4.03;;;3.63;;
14584;SDS011;7379;51.506;11.876;2022-10-17T05:13:31;5.47;;;3.50;;
14584;SDS011;7379;51.506;11.876;2022-10-17T05:15:58;4.82;;;3.40;;
14584;SDS011;7379;51.506;11.876;2022-10-17T05:18:25;4.15;;;3.72;;
14584;SDS011;7379;51.506;11.876;2022-10-17T05:20:54;3.78;;;3.38;;
14584;SDS011;7379;51.506;11.876;2022-10-17T05:23:21;4.13;;;3.72;;
14584;SDS011;7379;51.506;11.876;2022-10-17T05:25:52;3.75;;;3.40;;
14584;SDS011;7379;51.506;11.876;2022-10-17T05:28:19;4.32;;;3.80;;
14584;SDS011;7379;51.506;11.876;2022-10-17T05:30:46;3.70;;;3.35;;
14584;SDS011;7379;51.506;11.876;2022-10-17T05:33:13;4.38;;;3.97;;
14584;SDS011;7379;51.506;11.876;2022-10-17T05:35:40;5.28;;;3.92;;
14584;SDS011;7379;51.506;11.876;2022-10-17T05:38:08;7.10;;;4.72;;
14584;SDS011;7379;51.506;11.876;2022-10-17T05:40:35;4.63;;;4.22;;
14584;SDS011;7379;51.506;11.876;2022-10-17T05:43:03;5.85;;;5.00;;
14584;SDS011;7379;51.506;11.876;2022-10-17T05:45:30;4.80;;;4.38;;
14584;SDS011;7379;51.506;11.876;2022-10-17T05:47:56;5.90;;;4.20;;
14584;SDS011;7379;51.506;11.876;2022-10-17T05:50:23;6.47;;;4.30;;
14584;SDS011;7379;51.506;11.876;2022-10-17T05:52:51;4.75;;;4.15;;
14584;SDS011;7379;51.506;11.876;2022-10-17T05:55:20;4.68;;;3.88;;
14584;SDS011;7379;51.506;11.876;2022-10-17T05:57:47;4.15;;;3.75;;
14584;SDS011;7379;51.506;11.876;2022-10-17T06:00:14;4.45;;;4.00;;
14584;SDS011;7379;51.506;11.876;2022-10-17T06:02:42;5.10;;;3.72;;
14584;SDS011;7379;51.506;11.876;2022-10-17T06:05:09;4.85;;;3.72;;
14584;SDS011;7379;51.506;11.876;2022-10-17T06:07:36;4.50;;;3.80;;
14584;SDS011;7379;51.506;11.876;2022-10-17T06:10:03;4.07;;;3.67;;
14584;SDS011;7379;51.506;11.876;2022-10-17T06:12:32;4.28;;;3.85;;
14584;SDS011;7379;51.506;11.876;2022-10-17T06:14:59;4.28;;;3.70;;
14584;SDS011;7379;51.506;11.876;2022-10-17T06:17:26;4.00;;;3.60;;
14584;SDS011;7379;51.506;11.876;2022-10-17T06:19:54;4.13;;;3.70;;
14584;SDS011;7379;51.506;11.876;2022-10-17T06:22:21;4.63;;;3.70;;
14584;SDS011;7379;51.506;11.876;2022-10-17T06:24:48;3.83;;;3.53;;
14584;SDS011;7379;51.506;11.876;2022-10-17T06:27:16;5.15;;;3.47;;
14584;SDS011;7379;51.506;11.876;2022-10-17T06:29:44;3.90;;;3.50;;
14584;SDS011;7379;51.506;11.876;2022-10-17T06:32:12;3.97;;;3.40;;
14584;SDS011;7379;51.506;11.876;2022-10-17T06:34:39;3.40;;;3.10;;
14584;SDS011;7379;51.506;11.876;2022-10-17T06:37:05;3.65;;;3.25;;
14584;SDS011;7379;51.506;11.876;2022-10-17T06:39:33;3.80;;;3.40;;
14584;SDS011;7379;51.506;11.876;2022-10-17T06:42:00;3.53;;;3.22;;
14584;SDS011;7379;51.506;11.876;2022-10-17T06:44:28;3.80;;;3.38;;
14584;SDS011;7379;51.506;11.876;2022-10-17T06:46:57;3.97;;;3.50;;
14584;SDS011;7379;51.506;11.876;2022-10-17T06:49:24;3.70;;;3.40;;
14584;SDS011;7379;51.506;11.876;2022-10-17T06:51:52;3.83;;;3.40;;
14584;SDS011;7379;51.506;11.876;2022-10-17T06:54:19;3.78;;;3.38;;
14584;SDS011;7379;51.506;11.876;2022-10-17T06:56:46;3.50;;;3.20;;
14584;SDS011;7379;51.506;11.876;2022-10-17T06:59:12;4.20;;;3.50;;
14584;SDS011;7379;51.506;11.876;2022-10-17T07:01:39;4.13;;;3.72;;
14584;SDS011;7379;51.506;11.876;2022-10-17T07:04:07;4.30;;;3.50;;
14584;SDS011;7379;51.506;11.876;2022-10-17T07:06:34;4.63;;;3.50;;
14584;SDS011;7379;51.506;11.876;2022-10-17T07:09:01;3.97;;;3.58;;
14584;SDS011;7379;51.506;11.876;2022-10-17T07:11:30;4.63;;;3.70;;
14584;SDS011;7379;51.506;11.876;2022-10-17T07:13:58;5.25;;;3.95;;
14584;SDS011;7379;51.506;11.876;2022-10-17T07:16:25;3.95;;;3.60;;
14584;SDS011;7379;51.506;11.876;2022-10-17T07:18:53;4.63;;;3.90;;
14584;SDS011;7379;51.506;11.876;2022-10-17T07:21:21;5.20;;;3.70;;
14584;SDS011;7379;51.506;11.876;2022-10-17T07:23:48;4.75;;;3.63;;
14584;SDS011;7379;51.506;11.876;2022-10-17T07:26:15;5.05;;;3.90;;
14584;SDS011;7379;51.506;11.876;2022-10-17T07:28:43;3.60;;;3.30;;
14584;SDS011;7379;51.506;11.876;2022-10-17T07:31:12;4.82;;;3.70;;
14584;SDS011;7379;51.506;11.876;2022-10-17T07:33:41;5.28;;;3.63;;
14584;SDS011;7379;51.506;11.876;2022-10-17T07:36:08;4.13;;;3.72;;
14584;SDS011;7379;51.506;11.876;2022-10-17T07:38:37;4.43;;;3.90;;
14584;SDS011;7379;51.506;11.876;2022-10-17T07:41:05;4.03;;;3.42;;
14584;SDS011;7379;51.506;11.876;2022-10-17T07:43:32;5.57;;;3.60;;
14584;SDS011;7379;51.506;11.876;2022-10-17T07:46:00;4.03;;;3.50;;
14584;SDS011;7379;51.506;11.876;2022-10-17T07:48:28;3.58;;;3.20;;
14584;SDS011;7379;51.506;11.876;2022-10-17T07:50:55;4.90;;;3.92;;
14584;SDS011;7379;51.506;11.876;2022-10-17T07:53:22;4.82;;;3.72;;
14584;SDS011;7379;51.506;11.876;2022-10-17T07:55:50;4.20;;;3.63;;
14584;SDS011;7379;51.506;11.876;2022-10-17T07:58:17;4.07;;;3.47;;
14584;SDS011;7379;51.506;11.876;2022-10-17T08:00:43;4.28;;;3.80;;
14584;SDS011;7379;51.506;11.876;2022-10-17T08:03:12;5.90;;;3.70;;
14584;SDS011;7379;51.506;11.876;2022-10-17T08:05:39;5.22;;;3.55;;
14584;SDS011;7379;51.506;11.876;2022-10-17T08:08:05;5.25;;;3.92;;
14584;SDS011;7379;51.506;11.876;2022-10-17T08:10:32;4.22;;;3.83;;
14584;SDS011;7379;51.506;11.876;2022-10-17T08:13:00;4.38;;;3.63;;
14584;SDS011;7379;51.506;11.876;2022-10-17T08:15:27;4.70;;;4.10;;
14584;SDS011;7379;51.506;11.876;2022-10-17T08:17:55;4.85;;;3.50;;
14584;SDS011;7379;51.506;11.876;2022-10-17T08:20:22;4.97;;;3.45;;
14584;SDS011;7379;51.506;11.876;2022-10-17T08:22:52;4.18;;;3.50;;
14584;SDS011;7379;51.506;11.876;2022-10-17T08:25:19;4.15;;;3.55;;
14584;SDS011;7379;51.506;11.876;2022-10-17T08:27:45;4.22;;;3.80;;
14584;SDS011;7379;51.506;11.876;2022-10-17T08:30:14;4.25;;;3.60;;
14584;SDS011;7379;51.506;11.876;2022-10-17T08:32:41;6.78;;;3.58;;
14584;SDS011;7379;51.506;11.876;2022-10-17T08:35:08;4.45;;;3.60;;
14584;SDS011;7379;51.506;11.876;2022-10-17T08:37:35;3.80;;;3.50;;
14584;SDS011;7379;51.506;11.876;2022-10-17T08:40:02;5.03;;;3.55;;
14584;SDS011;7379;51.506;11.876;2022-10-17T08:42:35;3.92;;;3.53;;
14584;SDS011;7379;51.506;11.876;2022-10-17T08:45:20;4.60;;;3.70;;
14584;SDS011;7379;51.506;11.876;2022-10-17T08:47:53;3.60;;;3.30;;
14584;SDS011;7379;51.506;11.876;2022-10-17T08:50:26;3.78;;;3.10;;
14584;SDS011;7379;51.506;11.876;2022-10-17T08:52:59;3.60;;;3.30;;
14584;SDS011;7379;51.506;11.876;2022-10-17T08:55:31;5.00;;;3.22;;
14584;SDS011;7379;51.506;11.876;2022-10-17T08:58:01;4.50;;;3.38;;
14584;SDS011;7379;51.506;11.876;2022-10-17T09:00:29;4.93;;;3.35;;
14584;SDS011;7379;51.506;11.876;2022-10-17T09:03:02;4.22;;;3.03;;
14584;SDS011;7379;51.506;11.876;2022-10-17T09:05:54;4.93;;;3.10;;
14584;SDS011;7379;51.506;11.876;2022-10-17T09:08:29;4.20;;;3.40;;
14584;SDS011;7379;51.506;11.876;2022-10-17T09:11:08;5.10;;;3.10;;
14584;SDS011;7379;51.506;11.876;2022-10-17T09:13:44;5.55;;;3.30;;
14584;SDS011;7379;51.506;11.876;2022-10-17T09:16:37;3.67;;;3.10;;
14584;SDS011;7379;51.506;11.876;2022-10-17T09:19:18;5.03;;;3.10;;
14584;SDS011;7379;51.506;11.876;2022-10-17T09:21:49;4.00;;;3.60;;
14584;SDS011;7379;51.506;11.876;2022-10-17T09:24:19;3.90;;;3.33;;
14584;SDS011;7379;51.506;11.876;2022-10-17T09:26:49;4.80;;;3.15;;
14584;SDS011;7379;51.506;11.876;2022-10-17T09:29:19;3.70;;;3.20;;
14584;SDS011;7379;51.506;11.876;2022-10-17T09:31:52;3.75;;;2.90;;
14584;SDS011;7379;51.506;11.876;2022-10-17T09:34:24;3.75;;;3.33;;
14584;SDS011;7379;51.506;11.876;2022-10-17T09:36:54;4.32;;;3.35;;
14584;SDS011;7379;51.506;11.876;2022-10-17T09:39:23;4.18;;;3.30;;
14584;SDS011;7379;51.506;11.876;2022-10-17T09:41:56;5.38;;;3.20;;
14584;SDS011;7379;51.506;11.876;2022-10-17T09:44:26;4.20;;;3.20;;
14584;SDS011;7379;51.506;11.876;2022-10-17T09:47:09;3.80;;;3.13;;
14584;SDS011;7379;51.506;11.876;2022-10-17T09:49:43;3.63;;;3.28;;
14584;SDS011;7379;51.506;11.876;2022-10-17T09:52:12;5.80;;;3.20;;
14584;SDS011;7379;51.506;11.876;2022-10-17T09:54:43;4.68;;;3.30;;
14584;SDS011;7379;51.506;11.876;2022-10-17T09:57:12;3.40;;;3.10;;
14584;SDS011;7379;51.506;11.876;2022-10-17T09:59:41;3.40;;;3.10;;
14584;SDS011;7379;51.506;11.876;2022-10-17T10:02:20;5.22;;;3.40;;
14584;SDS011;7379;51.506;11.876;2022-10-17T10:04:53;4.97;;;2.90;;
14584;SDS011;7379;51.506;11.876;2022-10-17T10:07:21;4.40;;;3.45;;
14584;SDS011;7379;51.506;11.876;2022-10-17T10:09:49;4.15;;;3.00;;
14584;SDS011;7379;51.506;11.876;2022-10-17T10:12:17;3.75;;;3.13;;
14584;SDS011;7379;51.506;11.876;2022-10-17T10:14:46;4.75;;;3.15;;
14584;SDS011;7379;51.506;11.876;2022-10-17T10:23:11;4.78;;;3.03;;
14584;SDS011;7379;51.506;11.876;2022-10-17T10:28:49;3.67;;;3.10;;
14584;SDS011;7379;51.506;11.876;2022-10-17T10:31:24;5.30;;;3.10;;
14584;SDS011;7379;51.506;11.876;2022-10-17T10:33:54;4.78;;;3.58;;
14584;SDS011;7379;51.506;11.876;2022-10-17T10:36:22;4.68;;;3.30;;
14584;SDS011;7379;51.506;11.876;2022-10-17T10:38:52;3.33;;;3.03;;
14584;SDS011;7379;51.506;11.876;2022-10-17T10:41:21;6.38;;;3.38;;
14584;SDS011;7379;51.506;11.876;2022-10-17T10:43:51;5.57;;;3.10;;
14584;SDS011;7379;51.506;11.876;2022-10-17T10:46:21;3.80;;;3.20;;
14584;SDS011;7379;51.506;11.876;2022-10-17T10:48:52;5.53;;;3.10;;
14584;SDS011;7379;51.506;11.876;2022-10-17T10:51:22;4.32;;;3.33;;
14584;SDS011;7379;51.506;11.876;2022-10-17T10:53:55;4.22;;;3.25;;
14584;SDS011;7379;51.506;11.876;2022-10-17T10:56:29;5.25;;;3.15;;
14584;SDS011;7379;51.506;11.876;2022-10-17T10:59:03;5.07;;;3.20;;
14584;SDS011;7379;51.506;11.876;2022-10-17T11:01:37;3.85;;;3.00;;
14584;SDS011;7379;51.506;11.876;2022-10-17T11:04:14;4.75;;;3.10;;
14584;SDS011;7379;51.506;11.876;2022-10-17T11:06:47;4.25;;;2.75;;
14584;SDS011;7379;51.506;11.876;2022-10-17T11:09:23;5.00;;;3.15;;
14584;SDS011;7379;51.506;11.876;2022-10-17T11:11:57;4.07;;;3.13;;
14584;SDS011;7379;51.506;11.876;2022-10-17T11:14:33;5.95;;;2.88;;
14584;SDS011;7379;51.506;11.876;2022-10-17T11:17:07;4.35;;;2.97;;
14584;SDS011;7379;51.506;11.876;2022-10-17T11:19:43;4.50;;;3.38;;
14584;SDS011;7379;51.506;11.876;2022-10-17T11:22:20;4.90;;;3.42;;
14584;SDS011;7379;51.506;11.876;2022-10-17T11:24:53;4.70;;;3.00;;
14584;SDS011;7379;51.506;11.876;2022-10-17T11:27:25;3.40;;;3.10;;
14584;SDS011;7379;51.506;11.876;2022-10-17T11:29:54;3.47;;;3.08;;
14584;SDS011;7379;51.506;11.876;2022-10-17T11:32:24;3.85;;;2.85;;
14584;SDS011;7379;51.506;11.876;2022-10-17T11:34:55;3.95;;;3.40;;
14584;SDS011;7379;51.506;11.876;2022-10-17T11:37:27;3.92;;;2.95;;
14584;SDS011;7379;51.506;11.876;2022-10-17T11:39:59;3.78;;;3.10;;
14584;SDS011;7379;51.506;11.876;2022-10-17T11:42:30;3.75;;;3.13;;
14584;SDS011;7379;51.506;11.876;2022-10-17T11:45:02;5.22;;;2.88;;
14584;SDS011;7379;51.506;11.876;2022-10-17T11:47:36;3.40;;;3.10;;
14584;SDS011;7379;51.506;11.876;2022-10-17T11:50:18;4.43;;;3.40;;
14584;SDS011;7379;51.506;11.876;2022-10-17T11:52:50;3.65;;;3.15;;
14584;SDS011;7379;51.506;11.876;2022-10-17T11:55:22;5.18;;;3.00;;
14584;SDS011;7379;51.506;11.876;2022-10-17T11:57:55;3.85;;;2.78;;
14584;SDS011;7379;51.506;11.876;2022-10-17T12:00:34;6.10;;;3.10;;
14584;SDS011;7379;51.506;11.876;2022-10-17T12:03:17;5.07;;;3.00;;
14584;SDS011;7379;51.506;11.876;2022-10-17T12:06:03;3.38;;;3.08;;
14584;SDS011;7379;51.506;11.876;2022-10-17T12:08:40;3.25;;;2.70;;
14584;SDS011;7379;51.506;11.876;2022-10-17T12:11:16;3.80;;;3.05;;
14584;SDS011;7379;51.506;11.876;2022-10-17T12:13:53;2.97;;;2.67;;
14584;SDS011;7379;51.506;11.876;2022-10-17T12:19:27;4.57;;;2.97;;
14584;SDS011;7379;51.506;11.876;2022-10-17T12:22:04;2.90;;;2.60;;
14584;SDS011;7379;51.506;11.876;2022-10-17T12:24:44;3.10;;;2.58;;
14584;SDS011;7379;51.506;11.876;2022-10-17T12:27:20;3.35;;;2.60;;
14584;SDS011;7379;51.506;11.876;2022-10-17T12:29:59;5.07;;;2.95;;
14584;SDS011;7379;51.506;11.876;2022-10-17T12:32:26;4.55;;;2.85;;
14584;SDS011;7379;51.506;11.876;2022-10-17T12:34:54;4.85;;;2.50;;
14584;SDS011;7379;51.506;11.876;2022-10-17T12:40:52;3.97;;;2.78;;
14584;SDS011;7379;51.506;11.876;2022-10-17T12:49:18;3.42;;;2.47;;
14584;SDS011;7379;51.506;11.876;2022-10-17T12:52:17;6.03;;;2.45;;
14584;SDS011;7379;51.506;11.876;2022-10-17T12:55:00;4.32;;;2.92;;
14584;SDS011;7379;51.506;11.876;2022-10-17T12:57:36;7.30;;;3.00;;
14584;SDS011;7379;51.506;11.876;2022-10-17T13:00:14;5.40;;;3.17;;
14584;SDS011;7379;51.506;11.876;2022-10-17T13:02:45;5.85;;;2.70;;
14584;SDS011;7379;51.506;11.876;2022-10-17T13:05:14;3.53;;;2.90;;
14584;SDS011;7379;51.506;11.876;2022-10-17T13:07:52;4.00;;;2.70;;
14584;SDS011;7379;51.506;11.876;2022-10-17T13:10:22;5.32;;;2.90;;
14584;SDS011;7379;51.506;11.876;2022-10-17T13:12:53;4.72;;;3.05;;
14584;SDS011;7379;51.506;11.876;2022-10-17T13:15:29;4.90;;;2.92;;
14584;SDS011;7379;51.506;11.876;2022-10-17T13:17:56;3.15;;;2.67;;
14584;SDS011;7379;51.506;11.876;2022-10-17T13:20:25;6.95;;;2.80;;
14584;SDS011;7379;51.506;11.876;2022-10-17T13:23:04;5.30;;;2.90;;
14584;SDS011;7379;51.506;11.876;2022-10-17T13:25:30;6.57;;;2.80;;
14584;SDS011;7379;51.506;11.876;2022-10-17T13:28:09;4.18;;;2.70;;
14584;SDS011;7379;51.506;11.876;2022-10-17T13:30:38;3.17;;;2.53;;
14584;SDS011;7379;51.506;11.876;2022-10-17T13:35:57;4.28;;;2.75;;
14584;SDS011;7379;51.506;11.876;2022-10-17T13:38:26;2.50;;;2.30;;
14584;SDS011;7379;51.506;11.876;2022-10-17T13:40:56;3.15;;;2.78;;
14584;SDS011;7379;51.506;11.876;2022-10-17T13:43:24;4.25;;;2.63;;
14584;SDS011;7379;51.506;11.876;2022-10-17T13:45:52;3.78;;;2.70;;
14584;SDS011;7379;51.506;11.876;2022-10-17T13:48:22;3.30;;;2.75;;
14584;SDS011;7379;51.506;11.876;2022-10-17T13:50:51;3.85;;;2.55;;
14584;SDS011;7379;51.506;11.876;2022-10-17T13:53:28;5.57;;;2.70;;
14584;SDS011;7379;51.506;11.876;2022-10-17T13:56:05;4.43;;;2.60;;
14584;SDS011;7379;51.506;11.876;2022-10-17T13:58:48;4.25;;;2.80;;
14584;SDS011;7379;51.506;11.876;2022-10-17T14:01:16;4.25;;;2.50;;
14584;SDS011;7379;51.506;11.876;2022-10-17T14:03:44;6.38;;;2.70;;
14584;SDS011;7379;51.506;11.876;2022-10-17T14:06:13;3.45;;;2.63;;
14584;SDS011;7379;51.506;11.876;2022-10-17T14:08:46;5.43;;;2.70;;
14584;SDS011;7379;51.506;11.876;2022-10-17T14:11:18;3.88;;;2.50;;
14584;SDS011;7379;51.506;11.876;2022-10-17T14:13:53;4.05;;;2.80;;
14584;SDS011;7379;51.506;11.876;2022-10-17T14:16:21;4.18;;;2.58;;
14584;SDS011;7379;51.506;11.876;2022-10-17T14:18:49;4.15;;;2.90;;
14584;SDS011;7379;51.506;11.876;2022-10-17T14:21:19;4.22;;;2.70;;
14584;SDS011;7379;51.506;11.876;2022-10-17T14:23:47;3.63;;;2.70;;
14584;SDS011;7379;51.506;11.876;2022-10-17T14:26:16;5.28;;;2.65;;
14584;SDS011;7379;51.506;11.876;2022-10-17T14:28:46;2.88;;;2.50;;
14584;SDS011;7379;51.506;11.876;2022-10-17T14:31:23;3.30;;;2.55;;
14584;SDS011;7379;51.506;11.876;2022-10-17T14:33:55;5.60;;;2.58;;
14584;SDS011;7379;51.506;11.876;2022-10-17T14:36:29;3.58;;;2.75;;
14584;SDS011;7379;51.506;11.876;2022-10-17T14:38:59;4.38;;;2.75;;
14584;SDS011;7379;51.506;11.876;2022-10-17T14:41:26;3.55;;;2.78;;
14584;SDS011;7379;51.506;11.876;2022-10-17T14:43:57;3.28;;;2.70;;
14584;SDS011;7379;51.506;11.876;2022-10-17T14:46:27;3.15;;;2.50;;
14584;SDS011;7379;51.506;11.876;2022-10-17T14:48:55;3.28;;;2.70;;
14584;SDS011;7379;51.506;11.876;2022-10-17T14:51:27;4.30;;;2.70;;
14584;SDS011;7379;51.506;11.876;2022-10-17T14:54:04;8.15;;;2.80;;
14584;SDS011;7379;51.506;11.876;2022-10-17T14:56:46;3.85;;;2.58;;
14584;SDS011;7379;51.506;11.876;2022-10-17T14:59:15;4.20;;;2.60;;
14584;SDS011;7379;51.506;11.876;2022-10-17T15:01:47;2.85;;;2.40;;
14584;SDS011;7379;51.506;11.876;2022-10-17T15:04:14;4.35;;;2.67;;
14584;SDS011;7379;51.506;11.876;2022-10-17T15:06:41;3.75;;;2.25;;
14584;SDS011;7379;51.506;11.876;2022-10-17T15:09:08;3.15;;;2.65;;
14584;SDS011;7379;51.506;11.876;2022-10-17T15:11:35;3.05;;;2.75;;
14584;SDS011;7379;51.506;11.876;2022-10-17T15:14:02;3.92;;;2.60;;
14584;SDS011;7379;51.506;11.876;2022-10-17T15:16:29;4.90;;;2.67;;
14584;SDS011;7379;51.506;11.876;2022-10-17T15:18:59;4.68;;;2.55;;
14584;SDS011;7379;51.506;11.876;2022-10-17T15:21:26;4.65;;;2.65;;
14584;SDS011;7379;51.506;11.876;2022-10-17T15:23:54;3.10;;;2.70;;
14584;SDS011;7379;51.506;11.876;2022-10-17T15:26:21;4.32;;;2.60;;
14584;SDS011;7379;51.506;11.876;2022-10-17T15:28:50;3.10;;;2.80;;
14584;SDS011;7379;51.506;11.876;2022-10-17T15:31:18;5.65;;;2.92;;
14584;SDS011;7379;51.506;11.876;2022-10-17T15:33:46;3.28;;;2.47;;